Time;durP1;ratioP1;P1;durP2;ratioP2;P2;SDS_P1;SDS_P2;PMS_P1;PMS_P2;Temp;Humidity;BMP_temperature;BMP_pressure;BME280_temperature;BME280_humidity;BME280_pressure;Samples;Min_cycle;Max_cycle;Signal;HPM_P1;HPM_P2
2022/01/13 00:00:17;;;;;;;;;35.50;32.50;;;;;;;;4992469;28;45513;-82
2022/01/13 00:02:42;;;;;;;;;39.50;34.00;;;;;;;;4973566;28;48169;-81
2022/01/13 00:05:08;;;;;;;;;44.33;38.67;;;;;;;;4974454;28;45613;-81
2022/01/13 00:07:35;;;;;;;;;36.00;30.50;;;;;;;;4973083;28;45445;-81
2022/01/13 00:10:01;;;;;;;;;37.25;30.75;;;;;;;;4976635;28;45496;-82
2022/01/13 00:12:31;;;;;;;;;41.75;37.50;;;;;;;;4973119;28;47447;-82
2022/01/13 00:15:45;;;;;;;;;35.50;31.75;;;;;;;;4991693;28;45403;-81
2022/01/13 00:22:50;;;;;;;;;34.33;30.00;;;;;;;;4989907;28;46574;-81
2022/01/13 00:25:18;;;;;;;;;33.25;30.50;;;;;;;;4981307;28;45737;-81
2022/01/13 00:27:46;;;;;;;;;36.25;31.75;;;;;;;;4979137;28;45657;-81
2022/01/13 00:30:16;;;;;;;;;31.00;28.50;;;;;;;;4991010;28;45557;-81
2022/01/13 00:32:41;;;;;;;;;33.75;28.50;;;;;;;;4991170;28;46336;-82
2022/01/13 00:35:07;;;;;;;;;33.25;31.00;;;;;;;;4990565;28;45459;-81
2022/01/13 00:37:34;;;;;;;;;34.00;28.75;;;;;;;;4990173;28;45574;-82
2022/01/13 00:39:59;;;;;;;;;35.50;33.75;;;;;;;;4991326;28;45415;-81
2022/01/13 00:42:25;;;;;;;;;37.33;34.00;;;;;;;;4990852;28;46216;-81
2022/01/13 00:44:50;;;;;;;;;36.25;29.50;;;;;;;;4992847;28;45484;-82
2022/01/13 00:47:16;;;;;;;;;30.00;26.67;;;;;;;;4991018;28;45439;-81
2022/01/13 00:49:41;;;;;;;;;33.25;29.50;;;;;;;;4973436;28;45521;-81
2022/01/13 00:52:06;;;;;;;;;29.33;27.00;;;;;;;;4990449;28;45652;-81
2022/01/13 00:54:33;;;;;;;;;37.33;29.67;;;;;;;;4972683;28;45864;-82
2022/01/13 00:56:58;;;;;;;;;39.75;35.25;;;;;;;;4992848;28;45339;-81
2022/01/13 00:59:23;;;;;;;;;35.33;32.33;;;;;;;;4992075;28;45797;-82
2022/01/13 01:01:50;;;;;;;;;30.00;29.33;;;;;;;;4990912;28;46488;-81
2022/01/13 01:04:16;;;;;;;;;29.75;26.25;;;;;;;;4990102;28;45830;-81
2022/01/13 01:06:41;;;;;;;;;35.25;29.75;;;;;;;;4991431;28;45423;-81
2022/01/13 01:09:13;;;;;;;;;35.67;32.00;;;;;;;;4972843;28;45701;-81
2022/01/13 01:11:38;;;;;;;;;33.00;26.25;;;;;;;;4972480;28;46452;-81
2022/01/13 01:14:06;;;;;;;;;33.25;30.00;;;;;;;;4991410;28;45861;-81
2022/01/13 01:16:33;;;;;;;;;40.25;31.00;;;;;;;;4990443;28;45439;-81
2022/01/13 01:19:05;;;;;;;;;38.00;30.50;;;;;;;;4972796;28;45597;-80
2022/01/13 01:26:30;;;;;;;;;30.25;29.25;;;;;;;;4990282;28;45533;-81
2022/01/13 01:29:07;;;;;;;;;44.00;31.00;;;;;;;;4972505;28;45642;-81
2022/01/13 01:31:35;;;;;;;;;33.00;27.00;;;;;;;;4989642;28;46635;-82
2022/01/13 01:36:33;;;;;;;;;30.00;25.00;;;;;;;;4990248;28;45625;-82
2022/01/13 01:38:59;;;;;;;;;32.25;28.75;;;;;;;;4972220;28;45433;-82
2022/01/13 01:41:27;;;;;;;;;31.00;26.75;;;;;;;;4972538;28;47354;-81
2022/01/13 01:43:57;;;;;;;;;36.00;27.25;;;;;;;;4990440;28;45809;-81
2022/01/13 01:46:23;;;;;;;;;27.00;22.75;;;;;;;;4971876;28;45562;-81
2022/01/13 01:48:48;;;;;;;;;35.00;29.00;;;;;;;;4972104;28;45655;-81
2022/01/13 01:51:13;;;;;;;;;30.33;24.33;;;;;;;;4990715;28;45427;-81
2022/01/13 01:53:39;;;;;;;;;26.33;21.00;;;;;;;;4971970;28;46096;-81
2022/01/13 01:56:04;;;;;;;;;26.00;20.75;;;;;;;;4989576;28;45514;-82
2022/01/13 01:58:29;;;;;;;;;27.25;21.00;;;;;;;;4971785;28;45603;-81
2022/01/13 02:00:55;;;;;;;;;28.33;20.67;;;;;;;;4989901;28;47512;-82
2022/01/13 02:03:22;;;;;;;;;25.00;22.25;;;;;;;;4990071;28;45526;-81
2022/01/13 02:05:47;;;;;;;;;21.25;18.50;;;;;;;;4989617;28;45832;-82
2022/01/13 02:08:12;;;;;;;;;22.25;20.00;;;;;;;;4976711;28;45371;-81
2022/01/13 02:10:37;;;;;;;;;21.00;19.67;;;;;;;;4972096;28;47427;-82
2022/01/13 02:13:07;;;;;;;;;23.00;20.33;;;;;;;;4989813;28;45409;-81
2022/01/13 02:15:34;;;;;;;;;23.00;20.00;;;;;;;;4970616;28;45925;-81
2022/01/13 02:18:01;;;;;;;;;25.25;21.75;;;;;;;;4990759;28;45575;-81
2022/01/13 02:20:49;;;;;;;;;24.00;21.25;;;;;;;;4989253;28;45383;-82
2022/01/13 02:23:27;;;;;;;;;20.75;16.50;;;;;;;;4989246;28;45634;-82
2022/01/13 02:25:52;;;;;;;;;17.00;17.00;;;;;;;;4989868;28;45741;-82
2022/01/13 02:28:17;;;;;;;;;21.33;19.33;;;;;;;;4989530;28;45705;-81
2022/01/13 02:30:44;;;;;;;;;27.33;23.67;;;;;;;;4970513;28;48139;-81
2022/01/13 02:33:09;;;;;;;;;27.25;20.75;;;;;;;;4971403;28;45978;-81
2022/01/13 02:35:35;;;;;;;;;25.00;20.67;;;;;;;;4972460;28;45796;-81
2022/01/13 02:38:00;;;;;;;;;20.75;18.00;;;;;;;;4971603;28;45617;-81
2022/01/13 02:40:25;;;;;;;;;24.67;22.33;;;;;;;;4970925;28;48161;-81
2022/01/13 02:42:50;;;;;;;;;17.67;17.67;;;;;;;;4989425;28;45583;-82
2022/01/13 02:45:20;;;;;;;;;24.33;23.00;;;;;;;;4988921;28;45368;-81
2022/01/13 02:50:11;;;;;;;;;17.67;17.00;;;;;;;;4989316;28;45345;-81
2022/01/13 02:52:36;;;;;;;;;23.75;21.75;;;;;;;;4988261;28;45792;-82
2022/01/13 02:55:02;;;;;;;;;24.50;19.75;;;;;;;;4970968;28;45472;-81
2022/01/13 02:57:28;;;;;;;;;22.00;20.00;;;;;;;;4970990;28;45423;-81
2022/01/13 02:59:53;;;;;;;;;23.33;22.00;;;;;;;;4988577;28;45488;-81
2022/01/13 03:02:18;;;;;;;;;17.67;16.00;;;;;;;;4989330;28;45384;-81
2022/01/13 03:04:47;;;;;;;;;23.33;20.67;;;;;;;;4989883;28;45346;-81
2022/01/13 03:07:12;;;;;;;;;21.50;20.00;;;;;;;;4970586;28;45589;-81
2022/01/13 03:09:37;;;;;;;;;18.67;16.33;;;;;;;;4989290;28;46302;-81
2022/01/13 03:12:03;;;;;;;;;21.00;17.00;;;;;;;;4971950;28;45840;-81
2022/01/13 03:14:28;;;;;;;;;18.25;16.00;;;;;;;;4970747;28;45857;-81
2022/01/13 03:16:53;;;;;;;;;22.00;18.67;;;;;;;;4971144;28;45509;-81
2022/01/13 03:19:20;;;;;;;;;14.00;13.33;;;;;;;;4988234;28;45590;-81
2022/01/13 03:21:45;;;;;;;;;20.25;18.75;;;;;;;;4989487;28;46051;-80
2022/01/13 03:24:11;;;;;;;;;17.67;16.33;;;;;;;;4989715;28;45448;-81
2022/01/13 03:26:37;;;;;;;;;17.75;15.25;;;;;;;;4971106;28;45597;-81
2022/01/13 03:29:14;;;;;;;;;20.25;16.50;;;;;;;;4991188;28;45904;-82
2022/01/13 03:31:40;;;;;;;;;19.50;17.25;;;;;;;;4991915;28;45928;-81
2022/01/13 03:34:06;;;;;;;;;24.75;19.75;;;;;;;;4995605;28;45334;-81
2022/01/13 03:36:32;;;;;;;;;18.75;16.75;;;;;;;;4972456;28;45219;-81
2022/01/13 03:39:00;;;;;;;;;19.50;14.00;;;;;;;;4991762;28;45808;-81
2022/01/13 03:41:26;;;;;;;;;19.25;16.00;;;;;;;;4992430;28;45511;-82
2022/01/13 03:43:53;;;;;;;;;18.75;16.50;;;;;;;;4975009;28;45744;-82
2022/01/13 03:46:19;;;;;;;;;17.00;15.50;;;;;;;;4992696;28;45772;-80
2022/01/13 03:48:44;;;;;;;;;16.50;15.75;;;;;;;;4991291;28;45610;-81
2022/01/13 03:51:09;;;;;;;;;17.67;16.00;;;;;;;;4991138;28;45394;-81
2022/01/13 03:53:37;;;;;;;;;20.25;17.75;;;;;;;;4991338;28;45444;-81
2022/01/13 03:56:08;;;;;;;;;17.00;14.00;;;;;;;;4992288;28;45791;-81
2022/01/13 03:58:52;;;;;;;;;20.25;18.50;;;;;;;;4990681;28;45491;-81
2022/01/13 04:01:36;;;;;;;;;18.50;16.50;;;;;;;;4991028;28;46065;-82
2022/01/13 04:04:01;;;;;;;;;21.75;20.00;;;;;;;;4992339;28;45408;-82
2022/01/13 04:06:43;;;;;;;;;19.67;14.67;;;;;;;;4974503;28;45666;-81
2022/01/13 04:09:19;;;;;;;;;23.25;19.75;;;;;;;;4991372;28;45689;-81
2022/01/13 04:11:44;;;;;;;;;19.00;15.25;;;;;;;;4973159;28;45411;-81
2022/01/13 04:14:10;;;;;;;;;17.33;16.67;;;;;;;;4970558;28;45510;-81
2022/01/13 04:16:37;;;;;;;;;13.25;12.75;;;;;;;;4991483;28;45455;-81
2022/01/13 04:19:05;;;;;;;;;21.50;18.75;;;;;;;;4991860;28;45657;-81
2022/01/13 04:21:34;;;;;;;;;15.00;14.50;;;;;;;;4974033;28;45857;-81
2022/01/13 04:23:59;;;;;;;;;19.25;14.25;;;;;;;;4991969;28;45693;-81
2022/01/13 04:26:30;;;;;;;;;15.75;14.50;;;;;;;;4973316;28;45440;-82
2022/01/13 04:29:04;;;;;;;;;14.50;12.75;;;;;;;;4973472;28;47941;-81
2022/01/13 04:31:29;;;;;;;;;15.75;15.25;;;;;;;;4994273;28;45420;-81
2022/01/13 04:33:54;;;;;;;;;18.33;16.00;;;;;;;;4996501;28;45468;-82
2022/01/13 04:36:19;;;;;;;;;16.00;15.33;;;;;;;;4990819;28;45570;-81
2022/01/13 04:38:45;;;;;;;;;18.67;18.00;;;;;;;;4990252;28;46179;-81
2022/01/13 04:41:10;;;;;;;;;19.00;18.00;;;;;;;;5005443;28;45590;-81
2022/01/13 04:43:35;;;;;;;;;18.67;15.67;;;;;;;;5000415;28;45513;-81
2022/01/13 04:46:00;;;;;;;;;17.67;14.00;;;;;;;;4991157;28;45498;-81
2022/01/13 04:48:26;;;;;;;;;18.75;16.25;;;;;;;;4990036;28;46582;-81
2022/01/13 04:50:51;;;;;;;;;22.33;19.00;;;;;;;;4990328;28;46063;-82
2022/01/13 04:53:16;;;;;;;;;14.00;14.00;;;;;;;;4990841;28;45714;-81
2022/01/13 04:55:50;;;;;;;;;25.00;21.00;;;;;;;;4972285;28;45480;-81
2022/01/13 04:58:16;;;;;;;;;17.75;17.00;;;;;;;;4993544;28;45474;-81
2022/01/13 05:00:41;;;;;;;;;15.50;14.75;;;;;;;;4973673;28;45425;-81
2022/01/13 05:03:06;;;;;;;;;21.33;16.67;;;;;;;;4973509;28;45610;-81
2022/01/13 05:05:31;;;;;;;;;18.67;18.67;;;;;;;;4989878;28;45606;-81
2022/01/13 05:07:57;;;;;;;;;13.33;10.00;;;;;;;;4991477;28;46472;-82
2022/01/13 05:10:22;;;;;;;;;22.00;20.50;;;;;;;;4991070;28;45526;-81
2022/01/13 05:12:53;;;;;;;;;17.50;15.25;;;;;;;;4991131;28;45393;-82
2022/01/13 05:15:26;;;;;;;;;19.00;17.50;;;;;;;;4997885;28;45541;-81
2022/01/13 05:20:21;;;;;;;;;14.00;14.00;;;;;;;;5003961;28;45542;-81
2022/01/13 05:22:48;;;;;;;;;16.75;14.25;;;;;;;;5002655;28;45614;-81
2022/01/13 05:25:16;;;;;;;;;16.50;16.25;;;;;;;;5005786;28;45139;-81
2022/01/13 05:27:41;;;;;;;;;18.75;16.50;;;;;;;;5000965;28;45497;-81
2022/01/13 05:30:07;;;;;;;;;14.67;14.00;;;;;;;;4999471;28;45676;-81
2022/01/13 05:32:33;;;;;;;;;17.50;15.75;;;;;;;;4990607;28;45533;-81
2022/01/13 05:34:58;;;;;;;;;17.67;15.67;;;;;;;;4989620;28;45526;-81
2022/01/13 05:37:23;;;;;;;;;14.75;14.25;;;;;;;;4971805;28;47564;-81
2022/01/13 05:39:49;;;;;;;;;20.67;17.67;;;;;;;;4990328;28;45478;-81
2022/01/13 05:42:14;;;;;;;;;19.33;18.00;;;;;;;;4991886;28;45316;-81
2022/01/13 05:44:39;;;;;;;;;14.67;14.67;;;;;;;;4996537;28;45351;-81
2022/01/13 05:47:05;;;;;;;;;20.33;19.00;;;;;;;;4973370;28;47960;-81
2022/01/13 05:49:30;;;;;;;;;19.75;16.25;;;;;;;;4972440;28;45995;-81
2022/01/13 05:51:56;;;;;;;;;18.00;18.00;;;;;;;;4983257;28;45416;-81
2022/01/13 05:54:21;;;;;;;;;19.33;16.67;;;;;;;;4993410;28;45682;-81
2022/01/13 05:56:46;;;;;;;;;17.67;17.67;;;;;;;;4989641;28;46321;-81
2022/01/13 05:59:11;;;;;;;;;18.33;15.67;;;;;;;;4992813;28;45487;-81
2022/01/13 06:01:36;;;;;;;;;24.00;20.67;;;;;;;;4992001;28;45623;-81
2022/01/13 06:04:02;;;;;;;;;22.00;20.00;;;;;;;;5001581;28;45316;-82
2022/01/13 06:06:27;;;;;;;;;18.33;17.00;;;;;;;;4991365;28;45397;-81
2022/01/13 06:08:52;;;;;;;;;16.33;15.00;;;;;;;;4992223;28;45428;-81
2022/01/13 06:11:22;;;;;;;;;21.00;18.67;;;;;;;;4993969;28;45393;-81
2022/01/13 06:13:47;;;;;;;;;17.75;15.25;;;;;;;;4991315;28;45521;-81
2022/01/13 06:16:12;;;;;;;;;16.67;14.33;;;;;;;;4978532;28;47452;-81
2022/01/13 06:18:37;;;;;;;;;19.67;18.00;;;;;;;;4993086;28;45568;-82
2022/01/13 06:21:02;;;;;;;;;19.33;16.00;;;;;;;;5002802;28;45324;-81
2022/01/13 06:23:28;;;;;;;;;15.00;14.33;;;;;;;;4990621;28;45540;-81
2022/01/13 06:25:53;;;;;;;;;18.67;15.67;;;;;;;;4987832;28;47684;-82
2022/01/13 06:28:18;;;;;;;;;19.00;18.67;;;;;;;;4999019;28;45517;-81
2022/01/13 06:30:43;;;;;;;;;16.67;15.00;;;;;;;;4989987;28;45767;-81
2022/01/13 06:33:09;;;;;;;;;16.67;16.67;;;;;;;;4983184;28;45669;-82
2022/01/13 06:35:35;;;;;;;;;18.33;18.33;;;;;;;;4998196;28;45513;-81
2022/01/13 06:38:01;;;;;;;;;24.25;21.00;;;;;;;;5001830;28;45408;-81
2022/01/13 06:40:26;;;;;;;;;23.00;22.33;;;;;;;;4999487;28;45506;-82
2022/01/13 06:42:51;;;;;;;;;22.00;18.75;;;;;;;;4989184;28;45748;-82
2022/01/13 06:45:17;;;;;;;;;35.50;25.00;;;;;;;;4988441;28;46281;-81
2022/01/13 06:47:42;;;;;;;;;22.67;19.33;;;;;;;;4989115;28;45284;-82
2022/01/13 06:50:08;;;;;;;;;20.25;18.75;;;;;;;;4988845;28;45520;-82
2022/01/13 06:52:33;;;;;;;;;20.75;18.00;;;;;;;;4989693;28;45489;-82
2022/01/13 06:54:58;;;;;;;;;27.00;26.33;;;;;;;;4988995;28;45576;-81
2022/01/13 06:57:24;;;;;;;;;20.67;19.67;;;;;;;;4989608;28;45702;-82
2022/01/13 06:59:49;;;;;;;;;22.00;20.00;;;;;;;;4989621;28;45497;-82
2022/01/13 07:02:14;;;;;;;;;24.67;22.00;;;;;;;;4975323;28;45679;-82
2022/01/13 07:04:40;;;;;;;;;21.00;19.00;;;;;;;;4997459;28;46059;-81
2022/01/13 07:07:05;;;;;;;;;23.33;22.00;;;;;;;;4995962;28;45340;-82
2022/01/13 07:09:30;;;;;;;;;18.00;16.33;;;;;;;;5009155;28;45376;-82
2022/01/13 07:11:55;;;;;;;;;21.50;19.50;;;;;;;;4985852;28;45439;-82
2022/01/13 07:14:21;;;;;;;;;22.25;20.00;;;;;;;;4996731;28;46674;-81
2022/01/13 07:16:46;;;;;;;;;19.33;18.00;;;;;;;;4991967;28;45614;-81
2022/01/13 07:19:12;;;;;;;;;26.33;17.00;;;;;;;;4992135;28;45458;-81
2022/01/13 07:21:41;;;;;;;;;17.25;15.75;;;;;;;;4991620;28;45458;-81
2022/01/13 07:24:06;;;;;;;;;26.00;22.00;;;;;;;;4992090;28;46607;-81
2022/01/13 07:26:31;;;;;;;;;23.00;19.00;;;;;;;;4997427;28;45300;-82
2022/01/13 07:28:56;;;;;;;;;21.75;18.25;;;;;;;;5003634;28;45467;-81
2022/01/13 07:31:22;;;;;;;;;22.67;21.33;;;;;;;;5000810;28;45530;-82
2022/01/13 07:33:47;;;;;;;;;27.67;23.67;;;;;;;;4991938;28;45458;-81
2022/01/13 07:36:13;;;;;;;;;22.50;20.25;;;;;;;;5004108;28;45039;-83
2022/01/13 07:38:38;;;;;;;;;21.00;18.75;;;;;;;;5010169;28;45077;-82
2022/01/13 07:41:03;;;;;;;;;23.00;22.33;;;;;;;;5014497;28;45331;-82
2022/01/13 07:43:29;;;;;;;;;23.00;21.75;;;;;;;;5010585;28;46406;-81
2022/01/13 07:45:55;;;;;;;;;28.00;22.50;;;;;;;;5010345;28;45058;-81
2022/01/13 07:48:21;;;;;;;;;19.00;16.25;;;;;;;;5010205;28;45069;-82
2022/01/13 07:50:47;;;;;;;;;18.75;16.25;;;;;;;;5010199;28;45089;-82
2022/01/13 07:53:12;;;;;;;;;24.25;23.25;;;;;;;;5010026;28;45737;-81
2022/01/13 07:55:37;;;;;;;;;23.33;22.33;;;;;;;;5004165;28;45376;-81
2022/01/13 07:58:02;;;;;;;;;20.33;19.33;;;;;;;;4993400;28;45384;-81
2022/01/13 08:00:28;;;;;;;;;25.00;23.25;;;;;;;;4991952;28;45653;-81
2022/01/13 08:02:53;;;;;;;;;26.33;23.33;;;;;;;;5012511;28;45720;-81
2022/01/13 08:05:18;;;;;;;;;26.00;22.33;;;;;;;;4998477;28;45368;-81
2022/01/13 08:07:43;;;;;;;;;25.33;22.00;;;;;;;;5009654;28;45215;-81
2022/01/13 08:10:09;;;;;;;;;22.00;18.33;;;;;;;;5010061;28;45292;-81
2022/01/13 08:12:35;;;;;;;;;23.75;22.50;;;;;;;;5010146;28;45604;-81
2022/01/13 08:15:00;;;;;;;;;21.75;19.00;;;;;;;;5009514;28;45075;-81
2022/01/13 08:20:10;;;;;;;;;20.25;18.25;;;;;;;;5007291;28;45188;-81
2022/01/13 08:22:35;;;;;;;;;35.75;27.75;;;;;;;;5007873;28;45640;-80
2022/01/13 08:25:00;;;;;;;;;28.00;24.67;;;;;;;;5006946;28;45474;-81
2022/01/13 08:27:26;;;;;;;;;31.67;26.67;;;;;;;;5021333;28;45365;-81
2022/01/13 08:29:51;;;;;;;;;27.67;24.00;;;;;;;;5003507;28;45431;-81
2022/01/13 08:32:18;;;;;;;;;27.50;24.00;;;;;;;;4983488;28;46957;-81
2022/01/13 08:34:44;;;;;;;;;25.25;24.25;;;;;;;;4999685;28;45454;-82
2022/01/13 08:37:09;;;;;;;;;23.00;21.25;;;;;;;;4995278;28;45485;-81
2022/01/13 08:39:40;;;;;;;;;27.67;25.33;;;;;;;;5003344;28;45333;-81
2022/01/13 08:42:05;;;;;;;;;22.50;18.75;;;;;;;;5009601;28;45679;-81
2022/01/13 08:44:30;;;;;;;;;25.33;23.33;;;;;;;;5008785;28;45163;-81
2022/01/13 08:46:56;;;;;;;;;26.00;24.00;;;;;;;;5011360;28;45430;-81
2022/01/13 08:49:21;;;;;;;;;28.33;28.00;;;;;;;;5012111;28;46158;-81
2022/01/13 08:51:46;;;;;;;;;26.33;23.00;;;;;;;;5009207;28;45263;-81
2022/01/13 08:54:11;;;;;;;;;23.67;20.33;;;;;;;;4999170;28;45541;-82
2022/01/13 08:56:37;;;;;;;;;34.00;29.00;;;;;;;;4980214;28;45805;-81
2022/01/13 08:59:03;;;;;;;;;28.00;24.25;;;;;;;;4998799;28;45558;-81
2022/01/13 09:01:29;;;;;;;;;27.00;23.75;;;;;;;;5007141;28;45465;-81
2022/01/13 09:03:54;;;;;;;;;30.50;26.50;;;;;;;;4990042;28;45657;-81
2022/01/13 09:06:19;;;;;;;;;30.67;25.67;;;;;;;;4991164;28;45330;-81
2022/01/13 09:08:44;;;;;;;;;21.33;20.00;;;;;;;;5000544;28;45201;-81
2022/01/13 09:11:09;;;;;;;;;32.33;28.00;;;;;;;;4992619;28;45561;-81
2022/01/13 09:13:37;;;;;;;;;26.33;25.67;;;;;;;;4995689;28;45585;-81
2022/01/13 09:16:13;;;;;;;;;27.25;23.50;;;;;;;;4982075;28;45503;-81
2022/01/13 09:21:25;;;;;;;;;25.25;24.25;;;;;;;;4996669;28;45964;-81
2022/01/13 09:23:50;;;;;;;;;26.25;23.25;;;;;;;;4998163;28;45199;-81
2022/01/13 09:26:16;;;;;;;;;24.00;23.25;;;;;;;;5008312;28;45144;-81
2022/01/13 09:28:41;;;;;;;;;24.25;22.50;;;;;;;;5009062;28;45142;-82
2022/01/13 09:31:06;;;;;;;;;27.75;26.75;;;;;;;;4974903;28;47170;-81
2022/01/13 09:33:32;;;;;;;;;30.50;27.75;;;;;;;;4999157;28;45547;-81
2022/01/13 09:35:58;;;;;;;;;31.25;26.00;;;;;;;;4985566;28;45444;-81
2022/01/13 09:38:23;;;;;;;;;28.50;26.25;;;;;;;;4989652;28;45565;-81
2022/01/13 09:40:52;;;;;;;;;26.67;22.67;;;;;;;;4986667;28;45518;-82
2022/01/13 09:43:18;;;;;;;;;28.25;28.25;;;;;;;;4988422;28;45551;-81
2022/01/13 09:45:43;;;;;;;;;32.25;28.50;;;;;;;;4989272;28;45316;-80
2022/01/13 09:48:13;;;;;;;;;31.75;29.00;;;;;;;;4992878;28;45432;-81
2022/01/13 09:50:40;;;;;;;;;24.00;22.25;;;;;;;;4972859;28;47339;-81
2022/01/13 09:53:07;;;;;;;;;28.75;27.00;;;;;;;;4974534;28;45603;-80
2022/01/13 09:55:32;;;;;;;;;28.00;27.25;;;;;;;;4982462;28;45799;-82
2022/01/13 09:58:10;;;;;;;;;30.00;28.75;;;;;;;;4991486;28;45484;-81
2022/01/13 10:00:36;;;;;;;;;28.00;23.75;;;;;;;;4965999;28;47065;-80
2022/01/13 10:03:08;;;;;;;;;33.50;27.00;;;;;;;;4993870;28;45588;-80
2022/01/13 10:05:37;;;;;;;;;31.00;28.00;;;;;;;;4986955;28;46428;-81
2022/01/13 10:08:02;;;;;;;;;27.50;23.25;;;;;;;;4984580;28;45380;-80
2022/01/13 10:10:31;;;;;;;;;38.25;31.75;;;;;;;;4970805;28;47175;-80
2022/01/13 10:13:00;;;;;;;;;21.50;16.00;;;;;;;;4983989;28;45832;-80
2022/01/13 10:18:09;;;;;;;;;33.50;31.75;;;;;;;;4999367;28;45878;-81
2022/01/13 10:20:34;;;;;;;;;30.75;30.75;;;;;;;;4986025;28;47691;-81
2022/01/13 10:23:06;;;;;;;;;29.67;28.00;;;;;;;;4990022;28;45479;-81
2022/01/13 10:25:39;;;;;;;;;35.25;32.00;;;;;;;;4971178;28;45532;-81
2022/01/13 10:28:12;;;;;;;;;27.75;22.75;;;;;;;;4990140;28;45616;-81
2022/01/13 10:30:39;;;;;;;;;34.75;27.25;;;;;;;;4978282;28;45714;-81
2022/01/13 10:33:18;;;;;;;;;26.75;24.50;;;;;;;;4987758;28;45548;-80
2022/01/13 10:35:50;;;;;;;;;32.00;29.25;;;;;;;;4983961;28;45542;-82
2022/01/13 10:38:17;;;;;;;;;32.00;28.25;;;;;;;;4985637;28;45536;-81
2022/01/13 10:40:43;;;;;;;;;33.50;29.25;;;;;;;;4990401;28;45665;-82
2022/01/13 10:43:10;;;;;;;;;31.25;27.50;;;;;;;;4992458;28;45954;-81
2022/01/13 10:45:37;;;;;;;;;34.50;30.50;;;;;;;;4988790;28;45769;-81
2022/01/13 10:48:15;;;;;;;;;28.75;25.50;;;;;;;;4986731;28;45529;-81
2022/01/13 10:50:45;;;;;;;;;28.75;24.50;;;;;;;;4992423;28;46177;-80
2022/01/13 10:53:15;;;;;;;;;25.50;23.75;;;;;;;;4990618;28;45378;-81
2022/01/13 10:55:42;;;;;;;;;38.00;33.75;;;;;;;;4992341;28;45668;-81
2022/01/13 10:58:08;;;;;;;;;34.00;29.25;;;;;;;;4987684;28;45442;-80
2022/01/13 11:00:34;;;;;;;;;32.75;29.25;;;;;;;;4990107;28;45878;-81
2022/01/13 11:03:03;;;;;;;;;31.50;29.00;;;;;;;;4981537;28;46447;-81
2022/01/13 11:05:29;;;;;;;;;27.00;22.00;;;;;;;;4971959;28;45344;-81
2022/01/13 11:07:56;;;;;;;;;38.00;33.25;;;;;;;;4972946;28;45453;-82
2022/01/13 11:10:22;;;;;;;;;30.00;29.50;;;;;;;;4968122;28;47644;-81
2022/01/13 11:12:55;;;;;;;;;38.00;34.00;;;;;;;;4991026;28;45713;-82
2022/01/13 11:15:21;;;;;;;;;35.50;33.75;;;;;;;;4983698;28;45967;-82
2022/01/13 11:17:46;;;;;;;;;35.25;33.75;;;;;;;;4983905;28;45752;-81
2022/01/13 11:20:12;;;;;;;;;33.33;29.33;;;;;;;;4972354;28;47287;-81
2022/01/13 11:22:39;;;;;;;;;31.00;29.00;;;;;;;;4986764;28;45872;-81
2022/01/13 11:25:06;;;;;;;;;31.00;29.25;;;;;;;;4987682;28;45765;-81
2022/01/13 11:27:31;;;;;;;;;37.00;34.50;;;;;;;;4974987;28;45798;-81
2022/01/13 11:29:56;;;;;;;;;26.33;25.00;;;;;;;;4992095;28;46051;-81
2022/01/13 11:32:22;;;;;;;;;32.25;29.25;;;;;;;;4991605;28;45801;-82
2022/01/13 11:34:49;;;;;;;;;38.00;32.50;;;;;;;;4974973;28;45367;-81
2022/01/13 11:37:14;;;;;;;;;41.00;32.75;;;;;;;;4991815;28;45375;-81
2022/01/13 11:39:41;;;;;;;;;54.67;44.00;;;;;;;;4992042;28;45615;-81
2022/01/13 11:42:07;;;;;;;;;39.25;34.50;;;;;;;;4974738;28;46055;-81
2022/01/13 11:44:33;;;;;;;;;57.25;45.50;;;;;;;;4974250;28;45844;-81
2022/01/13 11:46:58;;;;;;;;;40.50;38.00;;;;;;;;4992697;28;45517;-81
2022/01/13 11:52:02;;;;;;;;;37.50;35.25;;;;;;;;4992173;28;45749;-81
2022/01/13 11:54:32;;;;;;;;;38.25;35.25;;;;;;;;4974302;28;45449;-79
2022/01/13 11:57:16;;;;;;;;;36.75;31.50;;;;;;;;4992797;28;45528;-81
2022/01/13 11:59:56;;;;;;;;;35.25;31.00;;;;;;;;4991063;28;46546;-80
2022/01/13 12:02:26;;;;;;;;;40.00;35.50;;;;;;;;4973422;28;46333;-81
2022/01/13 12:05:14;;;;;;;;;38.75;35.75;;;;;;;;4995431;28;45594;-81
2022/01/13 12:07:56;;;;;;;;;64.50;53.00;;;;;;;;4990904;28;45901;-81
2022/01/13 12:10:24;;;;;;;;;64.50;51.75;;;;;;;;4973167;28;47446;-81
2022/01/13 12:12:50;;;;;;;;;40.25;35.75;;;;;;;;4973585;28;45933;-80
2022/01/13 12:15:16;;;;;;;;;40.50;33.75;;;;;;;;4991680;28;45511;-81
2022/01/13 12:17:52;;;;;;;;;41.00;37.00;;;;;;;;4990244;28;45505;-80
2022/01/13 12:20:21;;;;;;;;;31.00;30.75;;;;;;;;4973821;28;47353;-81
2022/01/13 12:22:56;;;;;;;;;34.75;32.25;;;;;;;;4988451;28;46099;-80
2022/01/13 12:25:31;;;;;;;;;33.00;30.50;;;;;;;;4990561;28;45860;-79
2022/01/13 12:27:56;;;;;;;;;37.50;35.75;;;;;;;;4991153;28;45781;-80
2022/01/13 12:30:21;;;;;;;;;45.00;37.67;;;;;;;;4990858;28;45692;-79
2022/01/13 12:32:47;;;;;;;;;36.00;32.67;;;;;;;;4990084;28;45479;-80
2022/01/13 12:35:28;;;;;;;;;17.00;16.50;;;;;;;;4991239;28;45451;-80
2022/01/13 12:37:58;;;;;;;;;43.00;38.75;;;;;;;;4991711;28;45433;-80
2022/01/13 12:40:25;;;;;;;;;75.25;60.75;;;;;;;;4992029;28;45490;-79
2022/01/13 12:42:52;;;;;;;;;34.50;31.00;;;;;;;;4992129;28;45699;-81
2022/01/13 12:45:31;;;;;;;;;37.25;35.25;;;;;;;;4991341;28;45426;-81
2022/01/13 12:48:15;;;;;;;;;39.75;34.00;;;;;;;;4974989;28;45639;-81
2022/01/13 12:50:45;;;;;;;;;34.75;32.25;;;;;;;;4987470;28;46789;-80
2022/01/13 12:53:16;;;;;;;;;38.50;36.25;;;;;;;;4989056;28;45580;-81
2022/01/13 12:55:43;;;;;;;;;44.00;39.00;;;;;;;;4986767;28;45652;-81
2022/01/13 12:58:09;;;;;;;;;41.50;36.50;;;;;;;;4985501;28;45827;-81
2022/01/13 13:00:35;;;;;;;;;43.75;38.50;;;;;;;;4987738;28;46265;-80
2022/01/13 13:03:05;;;;;;;;;36.00;33.25;;;;;;;;4976863;28;45703;-81
2022/01/13 13:05:44;;;;;;;;;40.00;33.75;;;;;;;;4969809;28;46581;-81
2022/01/13 13:08:17;;;;;;;;;38.75;32.75;;;;;;;;4990547;28;45440;-81
2022/01/13 13:10:43;;;;;;;;;42.00;37.00;;;;;;;;4982679;28;45406;-81
2022/01/13 13:13:09;;;;;;;;;32.25;30.25;;;;;;;;4985711;28;45872;-81
2022/01/13 13:17:59;;;;;;;;;39.33;36.00;;;;;;;;4975725;28;45961;-80
2022/01/13 13:20:26;;;;;;;;;34.00;32.67;;;;;;;;4994529;28;46435;-81
2022/01/13 13:22:56;;;;;;;;;31.00;28.50;;;;;;;;4997240;28;45488;-81
2022/01/13 13:25:28;;;;;;;;;34.25;30.75;;;;;;;;5007459;28;45586;-81
2022/01/13 13:27:53;;;;;;;;;34.25;31.75;;;;;;;;5002934;28;45306;-81
2022/01/13 13:30:18;;;;;;;;;36.00;31.67;;;;;;;;5008866;28;45584;-81
2022/01/13 13:32:47;;;;;;;;;42.00;37.67;;;;;;;;5001111;28;44917;-81
2022/01/13 13:35:14;;;;;;;;;47.50;42.25;;;;;;;;4983156;28;45257;-81
2022/01/13 13:37:43;;;;;;;;;62.50;50.50;;;;;;;;4999370;28;45507;-82
2022/01/13 13:40:18;;;;;;;;;43.00;39.00;;;;;;;;4990971;28;47150;-81
2022/01/13 13:42:43;;;;;;;;;52.75;45.25;;;;;;;;4990439;28;45169;-82
2022/01/13 13:45:10;;;;;;;;;34.67;33.67;;;;;;;;4990878;28;45275;-82
2022/01/13 13:47:35;;;;;;;;;44.00;37.00;;;;;;;;4987734;28;45359;-81
2022/01/13 13:50:01;;;;;;;;;40.25;36.00;;;;;;;;4983253;28;47367;-82
2022/01/13 13:52:27;;;;;;;;;44.00;39.00;;;;;;;;4987638;28;45798;-82
2022/01/13 13:54:53;;;;;;;;;66.33;53.67;;;;;;;;5009200;28;45144;-82
2022/01/13 13:57:20;;;;;;;;;59.25;48.00;;;;;;;;4990019;28;45291;-82
2022/01/13 13:59:48;;;;;;;;;38.50;35.50;;;;;;;;4984021;28;47893;-81
2022/01/13 14:02:14;;;;;;;;;55.00;46.75;;;;;;;;4986909;28;45768;-81
2022/01/13 14:04:49;;;;;;;;;69.75;55.25;;;;;;;;4990602;28;46423;-81
2022/01/13 14:07:30;;;;;;;;;38.00;33.50;;;;;;;;5000771;28;45312;-82
2022/01/13 14:09:57;;;;;;;;;37.25;34.25;;;;;;;;4985667;28;47811;-81
2022/01/13 14:12:26;;;;;;;;;37.00;34.50;;;;;;;;4984695;28;45766;-81
2022/01/13 14:14:52;;;;;;;;;31.75;31.50;;;;;;;;4962399;28;45912;-82
2022/01/13 14:17:31;;;;;;;;;36.67;35.33;;;;;;;;4963203;28;45839;-81
2022/01/13 14:20:01;;;;;;;;;33.50;32.00;;;;;;;;4960941;28;46988;-81
2022/01/13 14:22:26;;;;;;;;;40.25;33.00;;;;;;;;4980484;28;45516;-82
2022/01/13 14:24:52;;;;;;;;;37.33;33.00;;;;;;;;4986212;28;45435;-81
2022/01/13 14:27:17;;;;;;;;;46.75;41.75;;;;;;;;4979721;28;45843;-82
2022/01/13 14:29:49;;;;;;;;;69.67;54.67;;;;;;;;4982471;28;47156;-81
2022/01/13 14:32:20;;;;;;;;;37.50;37.25;;;;;;;;4987176;28;46161;-82
2022/01/13 14:34:47;;;;;;;;;40.00;37.00;;;;;;;;4982232;28;45621;-81
2022/01/13 14:37:12;;;;;;;;;39.25;36.50;;;;;;;;4965169;28;45448;-81
2022/01/13 14:39:38;;;;;;;;;43.25;38.75;;;;;;;;4966023;28;47622;-81
2022/01/13 14:42:03;;;;;;;;;38.50;36.00;;;;;;;;4982915;28;45619;-81
2022/01/13 14:44:29;;;;;;;;;54.50;44.50;;;;;;;;4961164;28;45555;-80
2022/01/13 14:47:04;;;;;;;;;46.00;40.00;;;;;;;;4986038;28;45486;-81